createdAt,value
2022-08-05T00:08:35.712Z,11.00
2022-08-05T00:18:45.429Z,10.20
2022-08-05T00:28:52.133Z,12.70
2022-08-05T00:38:59.406Z,10.40
2022-08-05T00:49:05.961Z,10.50
2022-08-05T00:59:14.226Z,12.60
2022-08-05T01:09:20.664Z,12.40
2022-08-05T01:20:01.722Z,11.90
2022-08-05T01:30:03.359Z,11.90
2022-08-05T01:40:10.835Z,13.40
2022-08-05T01:50:29.774Z,13.30
2022-08-05T02:00:39.201Z,12.50
2022-08-05T02:10:50.611Z,14.70
2022-08-05T02:21:17.914Z,13.60
2022-08-05T02:31:28.379Z,14.80
2022-08-05T02:41:42.892Z,13.80
2022-08-05T02:52:04.349Z,15.10
2022-08-05T03:02:11.494Z,14.50
2022-08-05T03:12:37.730Z,15.40
2022-08-05T03:22:49.860Z,17.00
2022-08-05T03:32:56.841Z,17.30
2022-08-05T03:43:59.310Z,17.20
2022-08-05T03:55:53.611Z,17.10
2022-08-05T04:04:09.870Z,16.50
2022-08-05T04:14:18.774Z,18.30
2022-08-05T04:24:25.233Z,17.70
2022-08-05T04:34:35.306Z,20.10
2022-08-05T04:44:43.873Z,19.50
2022-08-05T04:54:50.670Z,23.00
2022-08-05T05:05:02.251Z,20.40
2022-08-05T05:15:11.178Z,20.20
2022-08-05T05:25:17.648Z,18.80
2022-08-05T05:35:24.205Z,19.30
2022-08-05T05:45:31.599Z,20.30
2022-08-05T05:55:52.429Z,19.70
2022-08-05T06:06:03.209Z,17.70
2022-08-05T06:16:29.280Z,12.70
2022-08-05T06:26:36.547Z,12.10
2022-08-05T06:36:57.552Z,15.60
2022-08-05T06:47:05.053Z,15.90
2022-08-05T06:57:57.496Z,14.60
2022-08-05T07:07:46.349Z,16.40
2022-08-05T07:18:00.995Z,17.50
2022-08-05T07:28:17.280Z,19.80
2022-08-05T07:38:33.847Z,18.00
2022-08-05T07:49:02.856Z,21.30
2022-08-05T07:59:08.630Z,19.20
2022-08-05T08:09:15.226Z,16.70
2022-08-05T08:20:21.143Z,19.60
2022-08-05T08:30:05.343Z,14.70
2022-08-05T08:40:15.278Z,14.50
2022-08-05T08:50:46.428Z,16.10
2022-08-05T09:00:50.062Z,12.30
2022-08-05T09:10:57.798Z,12.80
2022-08-05T09:21:05.153Z,11.70
2022-08-05T09:31:44.096Z,12.30
2022-08-05T09:41:58.592Z,11.50
2022-08-05T09:52:36.715Z,11.10
2022-08-05T10:02:58.422Z,9.30
2022-08-05T10:13:09.977Z,10.80
2022-08-05T10:23:34.763Z,11.30
2022-08-05T10:33:52.412Z,10.80
2022-08-05T10:44:05.624Z,9.20
2022-08-05T10:54:28.681Z,10.50
2022-08-05T11:04:45.537Z,11.60
2022-08-05T11:15:20.370Z,7.90
2022-08-05T11:26:04.451Z,10.20
2022-08-05T11:36:08.613Z,7.50
2022-08-05T11:46:32.260Z,11.90
2022-08-05T11:56:50.411Z,8.50
2022-08-05T12:07:00.978Z,8.30
2022-08-05T12:18:00.658Z,9.90
2022-08-05T12:27:36.110Z,8.15
2022-08-05T12:38:00.116Z,9.20
2022-08-05T12:48:27.665Z,9.50
2022-08-05T12:58:51.627Z,9.00
2022-08-05T13:09:12.656Z,7.70
2022-08-05T13:19:22.993Z,8.30
2022-08-05T13:29:37.674Z,8.60
2022-08-05T13:40:16.761Z,7.80
2022-08-05T13:50:16.239Z,9.30
2022-08-05T14:00:27.343Z,7.50
2022-08-05T14:10:34.658Z,8.10
2022-08-05T14:20:41.021Z,8.00
2022-08-05T14:30:53.531Z,6.90
2022-08-05T14:41:00.093Z,7.50
2022-08-05T14:51:06.505Z,9.30
2022-08-05T15:01:16.002Z,11.20
2022-08-05T15:11:24.473Z,9.20
2022-08-05T15:21:50.792Z,16.10
2022-08-05T15:32:02.320Z,11.10
2022-08-05T15:42:54.357Z,9.40
2022-08-05T15:52:54.615Z,9.90
2022-08-05T16:03:01.775Z,8.40
2022-08-05T16:13:08.520Z,11.30
2022-08-05T16:23:14.889Z,8.80
2022-08-05T16:33:21.662Z,7.50
2022-08-05T16:43:29.426Z,9.20
2022-08-05T16:54:02.883Z,7.90
2022-08-05T17:04:02.069Z,7.30
2022-08-05T17:14:08.395Z,8.50
2022-08-05T17:24:34.982Z,7.40
2022-08-05T17:34:49.238Z,7.60
2022-08-05T17:44:55.676Z,9.90
2022-08-05T17:55:03.117Z,8.70
2022-08-05T18:05:09.902Z,8.00
2022-08-05T18:15:20.139Z,4.70
2022-08-05T18:25:33.121Z,4.10
2022-08-05T18:36:00.142Z,4.10
2022-08-05T18:46:09.609Z,5.50
2022-08-05T18:56:16.254Z,5.20
2022-08-05T19:06:37.217Z,5.10
2022-08-05T19:16:51.137Z,5.10
2022-08-05T19:26:58.301Z,5.50
2022-08-05T19:37:04.742Z,6.70
2022-08-05T19:47:11.424Z,8.20
2022-08-05T19:57:21.745Z,8.10
2022-08-05T20:07:49.142Z,7.50
2022-08-05T20:17:55.637Z,9.00
2022-08-05T20:28:02.068Z,9.60
2022-08-05T20:38:08.650Z,9.30
2022-08-05T20:48:16.492Z,9.60
2022-08-05T20:58:23.093Z,10.50
2022-08-05T21:08:42.115Z,10.10
2022-08-05T21:18:50.518Z,9.70
2022-08-05T21:28:56.857Z,11.10
2022-08-05T21:39:14.182Z,11.60
2022-08-05T21:49:56.840Z,12.10
2022-08-05T22:00:05.514Z,14.80
2022-08-05T22:10:13.255Z,14.80
2022-08-05T22:20:21.032Z,15.50
2022-08-05T22:30:34.954Z,16.20
2022-08-05T22:40:49.635Z,16.40
2022-08-05T22:50:56.569Z,16.90
2022-08-05T23:01:05.811Z,17.50
2022-08-05T23:11:12.963Z,17.00
2022-08-05T23:21:19.523Z,15.80
2022-08-05T23:31:25.849Z,16.90
2022-08-05T23:41:40.943Z,17.00
2022-08-05T23:52:09.212Z,16.00
